createdAt,value
2018-01-28T00:00:56.170Z,22.1664
2018-01-28T00:02:01.343Z,21.1676
2018-01-28T00:03:06.533Z,20.4146
2018-01-28T00:04:11.702Z,20.9166
2018-01-28T00:05:17.182Z,20.1662
2018-01-28T00:06:22.655Z,21.1676
2018-01-28T00:07:28.533Z,21.1676
2018-01-28T00:08:34.024Z,20.9166
2018-01-28T00:09:38.629Z,21.667
2018-01-28T00:10:43.887Z,21.416
2018-01-28T00:11:49.077Z,21.1676
2018-01-28T00:12:55.117Z,21.1676
2018-01-28T00:14:00.310Z,23.0859
2018-01-28T00:15:05.614Z,22.3329
2018-01-28T00:16:11.239Z,22.5839
2018-01-28T00:17:16.407Z,22.8349
2018-01-28T00:18:21.627Z,22.5839
2018-01-28T00:19:41.423Z,23.8364
2018-01-28T00:20:46.881Z,23.3343
2018-01-28T00:21:52.414Z,23.5853
2018-01-28T00:22:57.591Z,22.8349
2018-01-28T00:24:03.062Z,22.5839
2018-01-28T00:25:08.420Z,22.8349
2018-01-28T00:26:13.886Z,21.667
2018-01-28T00:27:19.339Z,22.1664
2018-01-28T00:28:24.808Z,23.3343
2018-01-28T00:29:30.280Z,22.5839
2018-01-28T00:30:36.090Z,23.5853
2018-01-28T00:31:40.975Z,23.0859
2018-01-28T00:32:46.180Z,23.8364
2018-01-28T00:33:51.630Z,23.3343
2018-01-28T00:34:57.116Z,23.5853
2018-01-28T00:36:02.592Z,24.0847
2018-01-28T00:37:07.754Z,23.3343
2018-01-28T00:38:12.919Z,22.5839
2018-01-28T00:39:18.380Z,22.3329
2018-01-28T00:40:24.204Z,21.918
2018-01-28T00:41:29.645Z,23.0859
2018-01-28T00:42:35.289Z,22.3329
2018-01-28T00:43:39.903Z,22.8349
2018-01-28T00:44:45.380Z,23.0859
2018-01-28T00:45:51.112Z,22.8349
2018-01-28T00:46:56.358Z,23.3343
2018-01-28T00:48:01.842Z,23.5853
2018-01-28T00:49:07.576Z,22.5839
2018-01-28T00:50:13.042Z,23.0859
2018-01-28T00:51:18.228Z,23.0859
2018-01-28T00:52:23.949Z,22.8349
2018-01-28T00:53:28.845Z,23.5853
2018-01-28T00:54:34.289Z,24.0847
2018-01-28T00:55:39.766Z,24.3358
2018-01-28T00:56:44.996Z,23.5853
2018-01-28T00:57:50.709Z,24.3358
2018-01-28T00:58:55.897Z,24.5868
2018-01-28T01:00:01.068Z,24.0847
2018-01-28T01:01:06.384Z,24.7532
2018-01-28T01:02:11.570Z,24.7532
2018-01-28T01:03:16.493Z,25.0043
2018-01-28T01:04:22.140Z,24.0847
2018-01-28T01:05:27.577Z,25.2553
2018-01-28T01:06:33.472Z,25.0043
2018-01-28T01:07:38.400Z,26.0057
2018-01-28T01:08:43.851Z,27.0071
2018-01-28T01:09:49.723Z,26.5051
2018-01-28T01:10:54.922Z,27.6757
2018-01-28T01:12:00.385Z,26.5051
2018-01-28T01:13:05.807Z,27.4246
2018-01-28T01:14:10.429Z,27.4246
2018-01-28T01:15:15.900Z,27.4246
2018-01-28T01:16:21.593Z,28.175
2018-01-28T01:17:27.074Z,28.5925
2018-01-28T01:18:32.510Z,27.6757
2018-01-28T01:19:37.993Z,27.924
2018-01-28T01:20:42.883Z,28.3415
2018-01-28T01:21:48.509Z,28.3415
2018-01-28T01:22:53.984Z,29.343
2018-01-28T01:23:59.453Z,28.3415
2018-01-28T01:25:05.207Z,27.6757
2018-01-28T01:26:10.617Z,27.6757
2018-01-28T01:27:15.792Z,28.3415
2018-01-28T01:28:20.996Z,28.5925
2018-01-28T01:29:25.915Z,27.924
2018-01-28T01:30:31.647Z,27.924
2018-01-28T01:31:36.836Z,28.8436
2018-01-28T01:32:42.066Z,28.3415
2018-01-28T01:33:47.786Z,28.5925
2018-01-28T01:34:52.978Z,27.4246
2018-01-28T01:35:58.146Z,27.924
2018-01-28T01:37:03.588Z,28.3415
2018-01-28T01:38:08.468Z,27.4246
2018-01-28T01:39:13.715Z,27.6757
2018-01-28T01:40:19.156Z,28.3415
2018-01-28T01:41:24.658Z,28.5925
2018-01-28T01:42:30.151Z,28.5925
2018-01-28T01:43:35.636Z,28.175
2018-01-28T01:44:40.269Z,27.924
2018-01-28T01:45:45.876Z,28.8436
2018-01-28T01:46:51.352Z,28.8436
2018-01-28T01:47:56.544Z,28.3415
2018-01-28T01:49:01.984Z,28.3415
2018-01-28T01:50:07.169Z,29.7604
2018-01-28T01:51:12.360Z,29.594
2018-01-28T01:52:17.903Z,29.7604
2018-01-28T01:53:23.374Z,29.343
2018-01-28T01:54:28.942Z,29.343
2018-01-28T01:55:34.154Z,29.343
2018-01-28T01:56:39.065Z,29.343
2018-01-28T01:57:44.786Z,29.0946
2018-01-28T01:58:50.274Z,29.7604
2018-01-28T01:59:55.739Z,28.8436
2018-01-28T02:01:01.576Z,29.0946
2018-01-28T02:02:06.780Z,28.8436
2018-01-28T02:03:12.260Z,29.343
2018-01-28T02:04:17.840Z,28.3415
2018-01-28T02:05:23.015Z,29.7604
2018-01-28T02:06:29.035Z,28.8436
2018-01-28T02:07:34.536Z,29.343
2018-01-28T02:08:39.449Z,29.343
2018-01-28T02:09:44.808Z,30.5135
2018-01-28T02:10:50.004Z,29.7604
2018-01-28T02:11:55.478Z,29.343
2018-01-28T02:13:01.063Z,29.343
2018-01-28T02:14:05.982Z,29.343
2018-01-28T02:15:10.602Z,29.594
2018-01-28T02:16:16.033Z,28.5925
2018-01-28T02:17:21.535Z,28.5925
2018-01-28T02:18:27.528Z,28.3415
2018-01-28T02:19:32.418Z,28.5925
2018-01-28T02:20:37.608Z,29.7604
2018-01-28T02:21:43.055Z,29.7604
2018-01-28T02:22:48.531Z,28.8436
2018-01-28T02:23:53.995Z,28.8436
2018-01-28T02:24:59.732Z,28.3415
2018-01-28T02:26:04.634Z,28.3415
2018-01-28T02:27:09.228Z,27.0071
2018-01-28T02:28:14.352Z,27.0071
2018-01-28T02:29:19.836Z,27.2582
2018-01-28T02:30:26.006Z,27.0071
2018-01-28T02:31:30.942Z,27.2582
2018-01-28T02:32:36.419Z,26.7561
2018-01-28T02:33:41.868Z,27.4246
2018-01-28T02:34:47.331Z,27.924
2018-01-28T02:35:52.522Z,27.924
2018-01-28T02:36:58.013Z,28.175
2018-01-28T02:38:03.485Z,27.2582
2018-01-28T02:39:08.959Z,27.4246
2018-01-28T02:40:14.779Z,26.7561
2018-01-28T02:41:20.254Z,26.5051
2018-01-28T02:42:40.721Z,27.4246
2018-01-28T02:43:46.201Z,28.175
2018-01-28T02:44:51.395Z,27.2582
2018-01-28T02:45:56.824Z,28.3415
2018-01-28T02:47:02.036Z,27.0071
2018-01-28T02:48:06.966Z,28.5925
2018-01-28T02:49:12.826Z,28.3415
2018-01-28T02:50:18.284Z,27.4246
2018-01-28T02:51:24.558Z,28.3415
2018-01-28T02:52:30.195Z,27.924
2018-01-28T02:53:35.123Z,27.924
2018-01-28T02:54:40.663Z,27.924
2018-01-28T02:55:46.127Z,28.3415
2018-01-28T02:56:51.599Z,28.3415
2018-01-28T02:57:57.040Z,28.3415
2018-01-28T02:59:02.511Z,27.924
2018-01-28T03:00:07.712Z,27.4246
2018-01-28T03:01:13.149Z,27.6757
2018-01-28T03:02:18.353Z,28.175
2018-01-28T03:03:23.525Z,27.6757
2018-01-28T03:04:44.026Z,27.4246
2018-01-28T03:05:49.203Z,29.0946
2018-01-28T03:06:54.347Z,28.175
2018-01-28T03:07:59.822Z,28.175
2018-01-28T03:09:04.999Z,27.4246
2018-01-28T03:10:10.708Z,27.924
2018-01-28T03:11:16.164Z,28.8436
2018-01-28T03:12:21.621Z,28.175
2018-01-28T03:13:28.239Z,27.924
2018-01-28T03:14:33.410Z,28.8436
2018-01-28T03:15:39.008Z,28.175
2018-01-28T03:16:44.202Z,27.924
2018-01-28T03:17:49.380Z,28.175
2018-01-28T03:18:54.888Z,27.924
2018-01-28T03:20:00.389Z,27.924
2018-01-28T03:21:05.014Z,27.924
2018-01-28T03:22:10.715Z,28.3415
2018-01-28T03:23:15.617Z,27.4246
2018-01-28T03:24:21.088Z,27.6757
2018-01-28T03:25:26.846Z,27.6757
2018-01-28T03:26:32.324Z,28.3415
2018-01-28T03:27:38.179Z,27.924
2018-01-28T03:28:42.514Z,26.5051
2018-01-28T03:29:47.712Z,27.4246
2018-01-28T03:30:53.240Z,26.7561
2018-01-28T03:31:58.692Z,27.0071
2018-01-28T03:33:03.591Z,27.6757
2018-01-28T03:34:09.034Z,27.1736
2018-01-28T03:35:13.941Z,27.0071
2018-01-28T03:36:19.131Z,26.5051
2018-01-28T03:37:24.877Z,26.0057
2018-01-28T03:38:30.092Z,25.5037
2018-01-28T03:39:36.026Z,25.5037
2018-01-28T03:40:41.491Z,25.2553
2018-01-28T03:41:46.414Z,25.0043
2018-01-28T03:42:52.244Z,25.2553
2018-01-28T03:43:57.717Z,25.2553
2018-01-28T03:45:03.200Z,25.2553
2018-01-28T03:46:08.360Z,26.0057
2018-01-28T03:47:13.556Z,24.5868
2018-01-28T03:48:18.749Z,23.8364
2018-01-28T03:49:24.552Z,23.8364
2018-01-28T03:50:29.739Z,25.0043
2018-01-28T03:51:35.475Z,24.5868
2018-01-28T03:52:40.932Z,24.7532
2018-01-28T03:53:46.191Z,25.0043
2018-01-28T03:54:51.590Z,24.5868
2018-01-28T03:55:57.070Z,24.0847
2018-01-28T03:57:02.533Z,24.5868
2018-01-28T03:58:08.092Z,25.0043
2018-01-28T03:59:13.563Z,24.7532
2018-01-28T04:00:19.041Z,24.3358
2018-01-28T04:01:24.863Z,25.2553
2018-01-28T04:02:30.046Z,25.5037
2018-01-28T04:03:35.297Z,25.2553
2018-01-28T04:04:40.223Z,24.8378
2018-01-28T04:05:45.416Z,23.5853
2018-01-28T04:06:51.142Z,23.0859
2018-01-28T04:07:56.333Z,24.5868
2018-01-28T04:09:01.505Z,24.3358
2018-01-28T04:10:06.938Z,23.8364
2018-01-28T04:11:12.414Z,24.5868
2018-01-28T04:12:17.601Z,24.0847
2018-01-28T04:13:22.852Z,24.3358
2018-01-28T04:14:28.032Z,24.5868
2018-01-28T04:15:33.740Z,25.2553
2018-01-28T04:16:39.231Z,25.2553
2018-01-28T04:17:44.398Z,25.2553
2018-01-28T04:18:50.225Z,25.0043
2018-01-28T04:19:55.712Z,24.5868
2018-01-28T04:21:01.387Z,25.0043
2018-01-28T04:22:06.828Z,26.2567
2018-01-28T04:23:12.028Z,25.5037
2018-01-28T04:24:17.212Z,25.5037
2018-01-28T04:25:22.742Z,26.2567
2018-01-28T04:26:28.252Z,26.5051
2018-01-28T04:27:34.078Z,26.5051
2018-01-28T04:28:38.981Z,26.2567
2018-01-28T04:29:44.162Z,25.5037
2018-01-28T04:30:49.898Z,26.2567
2018-01-28T04:31:55.360Z,25.0043
2018-01-28T04:33:00.233Z,24.7532
2018-01-28T04:34:05.777Z,24.5868
2018-01-28T04:35:10.965Z,25.2553
2018-01-28T04:36:16.156Z,24.3358
2018-01-28T04:37:21.883Z,24.5868
2018-01-28T04:38:27.353Z,24.5868
2018-01-28T04:39:32.936Z,23.8364
2018-01-28T04:40:38.122Z,23.8364
2018-01-28T04:41:42.457Z,24.0847
2018-01-28T04:42:48.179Z,24.5868
2018-01-28T04:43:53.649Z,23.8364
2018-01-28T04:44:59.127Z,24.0847
2018-01-28T04:46:04.713Z,24.5868
2018-01-28T04:47:10.181Z,24.5868
2018-01-28T04:48:15.176Z,24.5868
2018-01-28T04:49:20.898Z,24.5868
2018-01-28T04:50:26.119Z,25.5037
2018-01-28T04:51:31.828Z,24.7532
2018-01-28T04:52:37.015Z,25.2553
2018-01-28T04:53:41.935Z,25.0043
2018-01-28T04:54:47.477Z,25.0043
2018-01-28T04:55:52.944Z,25.2553
2018-01-28T04:56:57.860Z,24.3358
2018-01-28T04:58:02.774Z,24.0847
2018-01-28T04:59:07.943Z,23.8364
2018-01-28T05:00:13.414Z,24.5868
2018-01-28T05:01:19.195Z,23.3343
2018-01-28T05:02:24.373Z,23.5853
2018-01-28T05:03:29.458Z,23.3343
2018-01-28T05:04:34.655Z,22.5839
2018-01-28T05:05:39.559Z,22.5839
2018-01-28T05:06:45.153Z,23.0859
2018-01-28T05:07:50.333Z,23.3343
2018-01-28T05:08:55.818Z,23.3343
2018-01-28T05:10:01.644Z,23.0859
2018-01-28T05:11:06.843Z,22.5839
2018-01-28T05:12:11.766Z,22.5839
2018-01-28T05:13:17.483Z,23.0859
2018-01-28T05:14:22.946Z,22.1664
2018-01-28T05:15:29.133Z,22.5839
2018-01-28T05:16:34.610Z,23.0859
2018-01-28T05:17:39.794Z,23.3343
2018-01-28T05:18:45.036Z,22.1664
2018-01-28T05:19:50.512Z,22.5839
2018-01-28T05:20:55.987Z,22.5839
2018-01-28T05:22:01.803Z,21.416
2018-01-28T05:23:06.177Z,21.1676
2018-01-28T05:24:11.065Z,22.1664
2018-01-28T05:25:16.788Z,21.1676
2018-01-28T05:26:21.999Z,21.667
2018-01-28T05:27:42.224Z,21.1676
2018-01-28T05:28:47.689Z,21.1676
2018-01-28T05:29:53.154Z,21.416
2018-01-28T05:30:58.296Z,20.9166
2018-01-28T05:32:03.775Z,20.9166
2018-01-28T05:33:09.266Z,20.1662
2018-01-28T05:34:14.671Z,20.6656
2018-01-28T05:35:20.142Z,20.9166
2018-01-28T05:36:40.776Z,19.2493
2018-01-28T05:37:46.010Z,18.5808
2018-01-28T05:38:51.491Z,20.4146
2018-01-28T05:39:56.927Z,19.7487
2018-01-28T05:41:02.112Z,19.4977
2018-01-28T05:42:07.000Z,18.8318
2018-01-28T05:43:12.867Z,19.7487
2018-01-28T05:44:18.330Z,19.7487
2018-01-28T05:45:23.563Z,19.2493
2018-01-28T05:46:29.419Z,19.9152
2018-01-28T05:47:34.888Z,20.6656
2018-01-28T05:48:40.492Z,20.9166
2018-01-28T05:49:45.666Z,20.9166
2018-01-28T05:50:51.128Z,20.4146
2018-01-28T05:51:56.867Z,20.6656
2018-01-28T05:53:02.357Z,20.6656
2018-01-28T05:54:07.277Z,20.6656
2018-01-28T05:55:13.018Z,21.416
2018-01-28T05:56:17.636Z,19.7487
2018-01-28T05:57:23.118Z,19.7487
2018-01-28T05:58:28.949Z,19.7487
2018-01-28T05:59:34.164Z,20.1662
2018-01-28T06:00:39.960Z,20.1662
2018-01-28T06:01:45.678Z,19.9152
2018-01-28T06:02:51.153Z,19.4977
2018-01-28T06:03:57.129Z,20.1662
2018-01-28T06:05:02.332Z,19.7487
2018-01-28T06:06:07.519Z,19.9152
2018-01-28T06:07:13.344Z,19.2493
2018-01-28T06:08:18.812Z,18.8318
2018-01-28T06:10:44.759Z,17.5793
2018-01-28T06:11:49.959Z,17.331
2018-01-28T06:12:55.610Z,16.9135
2018-01-28T06:14:01.068Z,17.08
2018-01-28T06:15:05.970Z,17.08
2018-01-28T06:16:11.403Z,17.08
2018-01-28T06:17:16.868Z,17.331
2018-01-28T06:18:22.353Z,17.08
2018-01-28T06:19:28.273Z,17.08
2018-01-28T06:20:33.742Z,16.9135
2018-01-28T06:21:39.470Z,16.9135
2018-01-28T06:22:44.678Z,16.4141
2018-01-28T06:23:50.140Z,17.1645
2018-01-28T06:24:55.790Z,15.6637
2018-01-28T06:26:01.000Z,15.1616
2018-01-28T06:27:05.628Z,15.1616
2018-01-28T06:28:11.435Z,14.6622
2018-01-28T06:29:16.937Z,14.9132
2018-01-28T06:30:22.147Z,15.4126
2018-01-28T06:31:27.571Z,14.6622
2018-01-28T06:32:32.757Z,14.6622
2018-01-28T06:33:38.503Z,14.6622
2018-01-28T06:34:43.687Z,14.9132
2018-01-28T06:35:49.152Z,15.1616
2018-01-28T06:36:54.860Z,14.9132
2018-01-28T06:38:00.326Z,15.6637
2018-01-28T06:39:05.794Z,14.9132
2018-01-28T06:40:11.310Z,15.6637
2018-01-28T06:41:16.501Z,15.1616
2018-01-28T06:42:21.993Z,14.9132
2018-01-28T06:43:27.336Z,14.6622
2018-01-28T06:44:32.800Z,14.4958
2018-01-28T06:45:37.746Z,13.9964
2018-01-28T06:46:42.638Z,13.7453
2018-01-28T06:47:48.115Z,14.6622
2018-01-28T06:48:53.830Z,13.3279
2018-01-28T06:49:59.297Z,15.1616
2018-01-28T06:51:04.776Z,14.6622
2018-01-28T06:52:09.956Z,14.2447
2018-01-28T06:53:15.148Z,14.9132
2018-01-28T06:54:20.352Z,14.6622
2018-01-28T06:55:26.075Z,15.6637
2018-01-28T06:56:31.257Z,15.6637
2018-01-28T06:57:37.169Z,15.6637
2018-01-28T06:58:42.637Z,14.4958
2018-01-28T06:59:47.866Z,15.4126
2018-01-28T07:00:53.030Z,15.1616
2018-01-28T07:01:58.221Z,16.1631
2018-01-28T07:03:03.714Z,15.6637
2018-01-28T07:04:09.649Z,15.912
2018-01-28T07:05:15.121Z,16.6625
2018-01-28T07:06:20.591Z,15.4126
2018-01-28T07:07:26.032Z,16.1631
2018-01-28T07:08:31.503Z,14.6622
2018-01-28T07:09:37.273Z,13.7453
2018-01-28T07:10:42.175Z,13.7453
2018-01-28T07:11:47.395Z,14.4958
2018-01-28T07:12:53.153Z,13.9964
2018-01-28T07:13:58.326Z,14.4958
2018-01-28T07:15:03.538Z,13.3279
2018-01-28T07:16:09.077Z,13.7453
2018-01-28T07:17:14.270Z,13.3279
2018-01-28T07:18:19.760Z,13.4943
2018-01-28T07:19:24.715Z,14.2447
2018-01-28T07:20:29.622Z,13.7453
2018-01-28T07:21:35.436Z,13.9964
2018-01-28T07:22:40.323Z,14.2447
2018-01-28T07:23:45.529Z,14.2447
2018-01-28T07:24:51.404Z,13.3279
2018-01-28T07:25:56.904Z,13.0795
2018-01-28T07:27:02.408Z,11.9116
2018-01-28T07:28:07.540Z,12.3291
2018-01-28T07:29:12.716Z,11.9116
2018-01-28T07:30:18.181Z,11.6606
2018-01-28T07:31:23.890Z,10.6618
2018-01-28T07:32:28.784Z,11.9116
2018-01-28T07:33:34.603Z,12.3291
2018-01-28T07:34:39.790Z,11.1612
2018-01-28T07:35:44.983Z,11.6606
2018-01-28T07:36:50.687Z,12.5774
2018-01-28T07:37:56.158Z,10.9128
2018-01-28T07:39:01.053Z,11.1612
2018-01-28T07:40:06.996Z,11.6606
2018-01-28T07:41:12.200Z,10.6618
2018-01-28T07:42:17.728Z,10.4107
2018-01-28T07:43:22.415Z,9.9113
2018-01-28T07:44:27.915Z,10.9128
2018-01-28T07:45:33.674Z,11.1612
2018-01-28T07:46:38.853Z,10.4107
2018-01-28T07:47:44.032Z,11.1612
2018-01-28T07:48:49.109Z,11.4122
2018-01-28T07:49:54.568Z,11.9116
2018-01-28T07:51:00.046Z,11.9116
2018-01-28T07:52:05.489Z,12.3291
2018-01-28T07:53:10.128Z,11.6606
2018-01-28T07:54:15.603Z,11.6606
2018-01-28T07:55:21.325Z,11.9116
2018-01-28T07:56:26.528Z,11.6606
2018-01-28T07:57:32.334Z,11.1612
2018-01-28T07:58:37.828Z,10.4107
2018-01-28T07:59:43.003Z,10.4107
2018-01-28T08:00:48.714Z,10.6618
2018-01-28T08:01:54.197Z,10.4107
2018-01-28T08:02:59.656Z,11.6606
2018-01-28T08:04:05.094Z,10.4107
2018-01-28T08:05:10.277Z,9.9113
2018-01-28T08:06:15.751Z,10.6618
2018-01-28T08:07:21.622Z,9.2455
2018-01-28T08:08:26.845Z,10.1624
2018-01-28T08:09:32.277Z,9.9113
2018-01-28T08:10:37.462Z,9.9113
2018-01-28T08:11:42.363Z,9.663
2018-01-28T08:12:47.797Z,9.4965
2018-01-28T08:13:52.404Z,9.9113
2018-01-28T08:14:57.592Z,9.4965
2018-01-28T08:16:03.035Z,9.4965
2018-01-28T08:17:08.229Z,9.2455
2018-01-28T08:18:13.408Z,9.4965
2018-01-28T08:19:18.712Z,8.7461
2018-01-28T08:20:23.902Z,9.7449
2018-01-28T08:21:29.493Z,9.4965
2018-01-28T08:22:34.107Z,9.7449
2018-01-28T08:23:38.728Z,9.9113
2018-01-28T08:24:43.998Z,9.2455
2018-01-28T08:25:49.507Z,9.9113
2018-01-28T08:26:54.981Z,8.7461
2018-01-28T08:28:00.457Z,9.7449
2018-01-28T08:29:05.386Z,9.7449
2018-01-28T08:30:10.263Z,8.7461
2018-01-28T08:31:15.707Z,8.7461
2018-01-28T08:32:21.201Z,8.9945
2018-01-28T08:33:40.799Z,8.9945
2018-01-28T08:34:46.269Z,9.4965
2018-01-28T08:35:51.752Z,9.4965
2018-01-28T08:36:57.496Z,8.9945
2018-01-28T08:38:02.656Z,9.7449
2018-01-28T08:39:07.849Z,9.4965
2018-01-28T08:40:13.559Z,9.9113
2018-01-28T08:41:19.236Z,10.1624
2018-01-28T08:42:39.713Z,10.1624
2018-01-28T08:43:45.210Z,9.663
2018-01-28T08:44:50.658Z,9.4965
2018-01-28T08:45:56.439Z,8.9945
2018-01-28T08:47:01.899Z,9.9113
2018-01-28T08:48:06.790Z,10.4107
2018-01-28T08:49:12.662Z,9.9113
2018-01-28T08:50:17.577Z,10.4107
2018-01-28T08:51:22.762Z,9.7449
2018-01-28T08:52:28.486Z,10.1624
2018-01-28T08:53:33.671Z,9.663
2018-01-28T08:54:38.809Z,9.4965
2018-01-28T08:55:43.710Z,10.1624
2018-01-28T08:56:48.899Z,9.663
2018-01-28T08:57:54.481Z,10.1624
2018-01-28T08:58:59.944Z,9.2455
2018-01-28T09:00:05.135Z,8.9945
2018-01-28T09:01:10.680Z,9.4965
2018-01-28T09:02:15.850Z,7.9957
2018-01-28T09:03:21.321Z,8.4951
2018-01-28T09:04:41.327Z,7.9957
2018-01-28T09:05:46.777Z,7.9957
2018-01-28T09:06:52.500Z,7.4963
2018-01-28T09:07:57.383Z,8.2467
2018-01-28T09:09:02.901Z,7.4963
2018-01-28T09:10:08.157Z,7.7446
2018-01-28T09:11:13.337Z,7.7446
2018-01-28T09:12:18.835Z,8.4951
2018-01-28T09:13:24.310Z,8.9945
2018-01-28T09:14:29.499Z,8.4951
2018-01-28T09:15:35.377Z,7.2452
2018-01-28T09:16:40.311Z,8.4951
2018-01-28T09:17:45.792Z,7.9957
2018-01-28T09:18:51.280Z,8.4951
2018-01-28T09:19:56.460Z,8.7461
2018-01-28T09:21:01.380Z,8.2467
2018-01-28T09:22:06.834Z,8.7461
2018-01-28T09:23:12.292Z,7.7446
2018-01-28T09:24:17.228Z,7.4963
2018-01-28T09:25:22.971Z,6.3284
2018-01-28T09:26:28.460Z,7.2452
2018-01-28T09:27:34.161Z,6.8304
2018-01-28T09:28:39.626Z,6.3284
2018-01-28T09:29:44.797Z,6.8304
2018-01-28T09:30:50.690Z,6.8304
2018-01-28T09:31:56.153Z,7.2452
2018-01-28T09:33:00.759Z,6.08
2018-01-28T09:34:06.216Z,6.3284
2018-01-28T09:35:11.434Z,6.5794
2018-01-28T09:36:16.625Z,6.08
2018-01-28T09:37:22.063Z,6.5794
2018-01-28T09:38:27.557Z,6.08
2018-01-28T09:39:32.997Z,6.08
2018-01-28T09:40:37.901Z,5.5806
2018-01-28T09:41:43.077Z,6.5794
2018-01-28T09:42:48.977Z,6.08
2018-01-28T09:43:54.434Z,6.5794
2018-01-28T09:44:59.904Z,5.5806
2018-01-28T09:46:05.627Z,5.3296
2018-01-28T09:47:11.086Z,6.08
2018-01-28T09:48:15.990Z,5.5806
2018-01-28T09:49:21.725Z,5.5806
2018-01-28T09:50:27.241Z,6.3284
2018-01-28T09:51:32.945Z,5.829
2018-01-28T09:52:38.158Z,5.0812
2018-01-28T09:53:43.060Z,5.5806
2018-01-28T09:54:48.486Z,5.5806
2018-01-28T09:55:53.959Z,4.1643
2018-01-28T09:56:59.155Z,4.6637
2018-01-28T09:58:04.636Z,5.0812
2018-01-28T09:59:09.805Z,4.1643
2018-01-28T10:00:15.272Z,3.4139
2018-01-28T10:01:21.027Z,4.4153
2018-01-28T10:02:26.521Z,3.9133
2018-01-28T10:03:32.004Z,3.4139
2018-01-28T10:04:37.228Z,3.1655
2018-01-28T10:05:41.572Z,3.1655
2018-01-28T10:06:47.597Z,3.1655
2018-01-28T10:07:52.791Z,2.9145
2018-01-28T10:08:57.973Z,3.1655
2018-01-28T10:10:03.609Z,3.6649
2018-01-28T10:11:08.776Z,3.6649
2018-01-28T10:12:14.290Z,2.6661
2018-01-28T10:13:20.152Z,3.1655
2018-01-28T10:14:25.339Z,3.4139
2018-01-28T10:15:31.084Z,2.6661
2018-01-28T10:16:36.550Z,3.6649
2018-01-28T10:17:42.014Z,3.1655
2018-01-28T10:18:47.919Z,3.6649
2018-01-28T10:19:53.380Z,2.6661
2018-01-28T10:20:58.562Z,2.1667
2018-01-28T10:22:04.345Z,2.9145
2018-01-28T10:23:09.835Z,3.6649
2018-01-28T10:24:15.027Z,3.1655
2018-01-28T10:25:20.817Z,2.1667
2018-01-28T10:26:26.310Z,2.4151
2018-01-28T10:27:32.166Z,2.4151
2018-01-28T10:28:37.066Z,2.1667
2018-01-28T10:29:42.254Z,2.1667
2018-01-28T10:30:47.737Z,2.1667
2018-01-28T10:31:53.207Z,2.6661
2018-01-28T10:32:58.679Z,3.4139
2018-01-28T10:34:04.433Z,3.4139
2018-01-28T10:35:09.606Z,2.9145
2018-01-28T10:36:15.062Z,2.4151
2018-01-28T10:37:20.779Z,3.4139
2018-01-28T10:38:26.244Z,3.1655
2018-01-28T10:39:31.713Z,3.1655
2018-01-28T10:40:37.180Z,2.9145
2018-01-28T10:41:42.371Z,3.1655
2018-01-28T10:42:47.996Z,2.1667
2018-01-28T10:43:52.894Z,2.0002
2018-01-28T10:44:58.404Z,1.7492
2018-01-28T10:46:03.592Z,1.7492
2018-01-28T10:47:08.756Z,2.0002
2018-01-28T10:48:14.229Z,1.7492
2018-01-28T10:49:19.219Z,0.835
2018-01-28T10:50:24.736Z,1.5827
2018-01-28T10:51:30.119Z,0.584
2018-01-28T10:52:35.292Z,0.835
2018-01-28T10:53:40.520Z,1.7492
2018-01-28T10:54:45.974Z,1.3344
2018-01-28T10:55:51.192Z,2.1667
2018-01-28T10:56:56.375Z,2.1667
2018-01-28T10:58:01.597Z,2.6661
2018-01-28T10:59:06.791Z,2.9145
2018-01-28T11:00:11.989Z,2.6661
2018-01-28T11:01:17.453Z,2.6661
2018-01-28T11:02:22.644Z,3.1655
2018-01-28T11:03:28.640Z,3.4139
2018-01-28T11:04:34.234Z,3.9133
2018-01-28T11:05:39.457Z,4.1643
2018-01-28T11:06:44.523Z,3.9133
2018-01-28T11:07:49.694Z,3.6649
2018-01-28T11:08:54.873Z,3.9133
2018-01-28T11:09:59.716Z,3.9133
2018-01-28T11:11:04.617Z,3.9133
2018-01-28T11:12:09.849Z,3.4139
2018-01-28T11:13:15.277Z,2.6661
2018-01-28T11:14:20.752Z,3.4139
2018-01-28T11:15:40.623Z,3.1655
2018-01-28T11:16:45.538Z,2.9145
2018-01-28T11:17:50.719Z,2.4151
2018-01-28T11:18:56.548Z,2.9145
2018-01-28T11:20:01.191Z,3.6649
2018-01-28T11:21:06.118Z,3.1655
2018-01-28T11:22:11.574Z,2.6661
2018-01-28T11:23:16.740Z,3.1655
2018-01-28T11:24:21.345Z,2.9145
2018-01-28T11:25:26.864Z,2.4151
2018-01-28T11:26:32.057Z,2.6661
2018-01-28T11:27:37.789Z,2.4151
2018-01-28T11:28:42.962Z,2.9145
2018-01-28T11:29:48.440Z,1.9157
2018-01-28T11:30:54.169Z,2.9145
2018-01-28T11:31:58.798Z,2.6661
2018-01-28T11:33:03.994Z,2.1667
2018-01-28T11:34:09.814Z,3.1655
2018-01-28T11:35:15.294Z,3.1655
2018-01-28T11:36:20.778Z,2.6661
2018-01-28T11:37:26.223Z,2.6661
2018-01-28T11:38:31.115Z,3.1655
2018-01-28T11:39:37.077Z,2.6661
2018-01-28T11:40:42.005Z,2.1667
2018-01-28T11:41:47.185Z,3.4139
2018-01-28T11:42:52.785Z,2.9145
2018-01-28T11:43:58.249Z,2.9145
2018-01-28T11:45:03.154Z,1.9157
2018-01-28T11:46:08.633Z,2.1667
2018-01-28T11:47:14.103Z,2.4151
2018-01-28T11:48:19.284Z,2.9145
2018-01-28T11:49:24.630Z,3.4139
2018-01-28T11:50:29.544Z,2.6661
2018-01-28T11:51:34.972Z,3.9133
2018-01-28T11:52:39.872Z,4.1643
2018-01-28T11:53:45.071Z,4.4153
2018-01-28T11:54:50.894Z,3.6649
2018-01-28T11:55:56.093Z,3.9133
2018-01-28T11:57:01.561Z,3.1655
2018-01-28T11:58:07.094Z,2.1667
2018-01-28T11:59:11.987Z,3.1655
2018-01-28T12:00:17.172Z,3.1655
2018-01-28T12:01:22.713Z,2.6661
2018-01-28T12:02:28.171Z,1.7492
2018-01-28T12:03:33.829Z,2.4151
2018-01-28T12:04:39.149Z,2.1667
2018-01-28T12:05:44.341Z,2.9145
2018-01-28T12:06:50.081Z,3.6649
2018-01-28T12:07:55.549Z,2.9145
2018-01-28T12:09:01.012Z,3.6649
2018-01-28T12:10:06.473Z,3.9133
2018-01-28T12:11:11.989Z,3.1655
2018-01-28T12:12:17.185Z,3.6649
2018-01-28T12:13:22.632Z,3.6649
2018-01-28T12:14:28.093Z,3.9133
2018-01-28T12:15:33.677Z,4.1643
2018-01-28T12:16:38.871Z,3.1655
2018-01-28T12:17:44.096Z,3.9133
2018-01-28T12:18:49.739Z,3.4139
2018-01-28T12:19:55.211Z,3.4139
2018-01-28T12:20:59.824Z,3.6649
2018-01-28T12:22:05.462Z,2.4151
2018-01-28T12:23:10.354Z,2.9145
2018-01-28T12:24:15.538Z,2.9145
2018-01-28T12:25:20.991Z,3.1655
2018-01-28T12:26:26.172Z,2.4151
2018-01-28T12:27:31.934Z,2.4151
2018-01-28T12:28:37.406Z,2.1667
2018-01-28T12:29:42.606Z,2.4151
2018-01-28T12:30:48.340Z,3.1655
2018-01-28T12:31:53.812Z,3.6649
2018-01-28T12:32:59.282Z,3.4139
2018-01-28T12:34:04.825Z,3.6649
2018-01-28T12:35:10.281Z,3.4139
2018-01-28T12:36:15.774Z,3.6649
2018-01-28T12:37:21.499Z,3.6649
2018-01-28T12:38:26.396Z,4.3308
2018-01-28T12:39:32.344Z,3.9133
2018-01-28T12:40:36.928Z,3.9133
2018-01-28T12:41:42.153Z,3.9133
2018-01-28T12:42:47.288Z,4.1643
2018-01-28T12:43:52.774Z,4.8302
2018-01-28T12:44:58.257Z,3.9133
2018-01-28T12:46:03.862Z,5.3296
2018-01-28T12:47:09.037Z,4.3308
2018-01-28T12:48:14.236Z,4.1643
2018-01-28T12:49:20.226Z,3.4139
2018-01-28T12:50:25.463Z,4.3308
2018-01-28T12:51:31.338Z,5.3296
2018-01-28T12:52:36.551Z,5.0812
2018-01-28T12:53:40.792Z,5.3296
2018-01-28T12:54:46.410Z,5.3296
2018-01-28T12:55:51.880Z,5.0812
2018-01-28T12:56:57.255Z,5.3296
2018-01-28T12:58:02.950Z,5.3296
2018-01-28T12:59:08.457Z,5.5806
2018-01-28T13:00:13.641Z,4.5818
2018-01-28T13:01:19.066Z,6.08
2018-01-28T13:02:24.523Z,5.0812
2018-01-28T13:03:30.091Z,6.5794
2018-01-28T13:04:35.565Z,7.2452
2018-01-28T13:05:40.476Z,5.5806
2018-01-28T13:06:46.291Z,7.2452
2018-01-28T13:07:51.906Z,7.2452
2018-01-28T13:08:57.112Z,6.5794
2018-01-28T13:10:02.800Z,6.5794
2018-01-28T13:11:07.695Z,6.5794
2018-01-28T13:12:12.606Z,6.3284
2018-01-28T13:13:18.139Z,7.4963
2018-01-28T13:14:23.043Z,7.7446
2018-01-28T13:15:29.123Z,6.9969
2018-01-28T13:16:34.308Z,6.5794
2018-01-28T13:17:39.201Z,6.5794
2018-01-28T13:18:44.644Z,6.5794
2018-01-28T13:19:49.830Z,5.829
2018-01-28T13:20:55.324Z,6.7458
2018-01-28T13:22:01.240Z,6.7458
2018-01-28T13:23:06.717Z,6.08
2018-01-28T13:24:11.894Z,6.7458
2018-01-28T13:25:17.340Z,5.829
2018-01-28T13:26:22.542Z,6.3284
2018-01-28T13:27:28.717Z,6.5794